createdAt,value
2019-03-01T00:00:13.190Z,27.58
2019-03-01T00:02:45.862Z,25.05
2019-03-01T00:05:50.319Z,23.98
2019-03-01T00:08:41.408Z,23.38
2019-03-01T00:11:42.700Z,30.65
2019-03-01T00:14:42.854Z,25.23
2019-03-01T00:17:42.598Z,24.40
2019-03-01T00:20:46.790Z,26.57
2019-03-01T00:23:54.598Z,25.65
2019-03-01T00:27:15.657Z,24.40
2019-03-01T00:30:13.930Z,25.25
2019-03-01T00:33:08.930Z,24.72
2019-03-01T00:36:32.850Z,25.82
2019-03-01T00:39:54.613Z,25.50
2019-03-01T00:42:52.828Z,24.95
2019-03-01T00:45:24.229Z,22.70
2019-03-01T00:47:55.470Z,25.95
2019-03-01T00:50:26.713Z,24.12
2019-03-01T00:52:58.113Z,24.03
2019-03-01T00:55:29.568Z,26.77
2019-03-01T00:58:00.958Z,22.73
2019-03-01T01:00:35.750Z,26.02
2019-03-01T01:03:07.279Z,22.30
2019-03-01T01:05:38.622Z,24.30
2019-03-01T01:08:09.953Z,21.33
2019-03-01T01:10:41.350Z,21.93
2019-03-01T01:13:12.759Z,21.52
2019-03-01T01:15:44.325Z,19.55
2019-03-01T01:18:15.904Z,23.25
2019-03-01T01:20:48.101Z,23.75
2019-03-01T01:23:19.440Z,22.27
2019-03-01T01:25:50.738Z,23.50
2019-03-01T01:28:22.111Z,23.03
2019-03-01T01:30:53.640Z,24.23
2019-03-01T01:33:25.070Z,21.93
2019-03-01T01:35:57.099Z,24.35
2019-03-01T01:38:28.619Z,20.95
2019-03-01T01:40:59.738Z,32.10
2019-03-01T01:43:31.188Z,19.42
2019-03-01T01:46:02.451Z,22.30
2019-03-01T01:48:33.858Z,22.07
2019-03-01T01:51:05.442Z,24.70
2019-03-01T01:53:36.834Z,23.30
2019-03-01T01:56:08.190Z,21.62
2019-03-01T01:58:39.613Z,21.35
2019-03-01T02:01:10.958Z,23.27
2019-03-01T02:03:42.212Z,23.23
2019-03-01T02:06:13.633Z,23.13
2019-03-01T02:08:44.940Z,24.05
2019-03-01T02:11:16.309Z,19.70
2019-03-01T02:13:47.848Z,25.65
2019-03-01T02:16:19.148Z,22.48
2019-03-01T02:18:57.416Z,27.60
2019-03-01T02:21:23.428Z,21.10
2019-03-01T02:23:54.978Z,23.25
2019-03-01T02:26:26.168Z,20.57
2019-03-01T02:28:57.703Z,21.17
2019-03-01T02:31:29.093Z,21.85
2019-03-01T02:34:00.310Z,22.70
2019-03-01T02:39:04.211Z,23.73
2019-03-01T02:41:36.937Z,22.58
2019-03-01T02:44:09.102Z,21.20
2019-03-01T02:49:10.558Z,20.05
2019-03-01T02:51:42.067Z,22.05
2019-03-01T02:54:13.391Z,21.55
2019-03-01T02:56:44.820Z,20.90
2019-03-01T02:59:16.001Z,21.52
2019-03-01T03:01:47.439Z,25.25
2019-03-01T03:04:18.699Z,20.25
2019-03-01T03:07:05.062Z,23.20
2019-03-01T03:09:36.323Z,22.67
2019-03-01T03:12:07.671Z,18.87
2019-03-01T03:14:39.005Z,23.27
2019-03-01T03:17:10.336Z,18.93
2019-03-01T03:19:41.580Z,20.48
2019-03-01T03:22:12.872Z,19.90
2019-03-01T03:24:44.078Z,18.57
2019-03-01T03:27:15.852Z,19.03
2019-03-01T03:29:47.248Z,19.17
2019-03-01T03:32:18.522Z,19.07
2019-03-01T03:34:49.873Z,19.63
2019-03-01T03:37:21.152Z,19.25
2019-03-01T03:39:52.571Z,17.77
2019-03-01T03:42:24.292Z,20.33
2019-03-01T03:44:55.612Z,18.77
2019-03-01T03:47:27.121Z,19.53
2019-03-01T03:50:00.021Z,16.25
2019-03-01T03:52:31.428Z,20.40
2019-03-01T03:55:02.630Z,18.62
2019-03-01T03:57:34.071Z,19.93
2019-03-01T04:00:06.106Z,16.67
2019-03-01T04:05:08.119Z,19.17
2019-03-01T04:07:39.548Z,18.75
2019-03-01T04:10:11.342Z,21.20
2019-03-01T04:12:42.693Z,16.75
2019-03-01T04:15:14.108Z,18.70
2019-03-01T04:17:45.401Z,16.73
2019-03-01T04:20:17.852Z,21.73
2019-03-01T04:22:49.120Z,17.57
2019-03-01T04:25:20.475Z,23.60
2019-03-01T04:27:53.401Z,19.53
2019-03-01T04:30:25.002Z,19.67
2019-03-01T04:32:56.309Z,19.05
2019-03-01T04:35:27.501Z,20.27
2019-03-01T04:37:58.858Z,19.12
2019-03-01T04:40:30.078Z,23.83
2019-03-01T04:43:01.421Z,19.50
2019-03-01T04:45:32.661Z,23.00
2019-03-01T04:48:04.110Z,19.07
2019-03-01T04:50:35.520Z,19.73
2019-03-01T04:53:06.789Z,18.10
2019-03-01T04:55:38.314Z,22.80
2019-03-01T04:58:09.607Z,21.42
2019-03-01T05:00:40.950Z,21.40
2019-03-01T05:03:12.390Z,18.02
2019-03-01T05:05:43.902Z,23.18
2019-03-01T05:08:15.312Z,20.25
2019-03-01T05:10:46.640Z,22.67
2019-03-01T05:13:17.933Z,21.43
2019-03-01T05:15:49.190Z,21.10
2019-03-01T05:18:20.479Z,22.33
2019-03-01T05:20:52.121Z,22.90
2019-03-01T05:23:23.406Z,19.35
2019-03-01T05:25:54.618Z,22.17
2019-03-01T05:28:25.970Z,21.87
2019-03-01T05:30:57.410Z,21.13
2019-03-01T05:33:28.528Z,21.15
2019-03-01T05:35:59.818Z,22.30
2019-03-01T05:38:34.336Z,21.60
2019-03-01T05:41:05.688Z,22.07
2019-03-01T05:43:36.950Z,20.43
2019-03-01T05:46:08.470Z,19.57
2019-03-01T05:48:39.781Z,21.15
2019-03-01T05:51:11.300Z,21.77
2019-03-01T05:53:42.730Z,22.30
2019-03-01T05:56:14.739Z,21.77
2019-03-01T05:59:07.187Z,20.40
2019-03-01T06:04:36.860Z,19.27
2019-03-01T06:07:48.368Z,19.40
2019-03-01T06:10:56.125Z,21.97
2019-03-01T06:14:18.630Z,20.52
2019-03-01T06:17:26.403Z,22.05
2019-03-01T06:20:36.508Z,24.00
2019-03-01T06:24:03.250Z,18.65
2019-03-01T06:27:17.550Z,20.27
2019-03-01T06:30:11.798Z,20.90
2019-03-01T06:33:41.730Z,18.82
2019-03-01T06:36:56.441Z,15.88
2019-03-01T06:40:15.503Z,21.95
2019-03-01T06:43:13.218Z,18.12
2019-03-01T06:46:15.400Z,21.50
2019-03-01T06:49:05.451Z,19.05
2019-03-01T06:51:38.020Z,21.70
2019-03-01T06:54:09.320Z,20.70
2019-03-01T06:56:42.280Z,19.00
2019-03-01T06:59:13.521Z,23.22
2019-03-01T07:01:46.411Z,23.65
2019-03-01T07:04:21.134Z,19.05
2019-03-01T07:06:52.318Z,20.40
2019-03-01T07:09:23.527Z,16.93
2019-03-01T07:11:54.768Z,19.90
2019-03-01T07:16:58.610Z,29.23
2019-03-01T07:19:30.063Z,18.48
2019-03-01T07:22:01.410Z,19.60
2019-03-01T07:24:33.871Z,17.73
2019-03-01T07:27:05.101Z,20.25
2019-03-01T07:29:37.064Z,17.85
2019-03-01T07:32:08.511Z,18.42
2019-03-01T07:34:39.830Z,17.67
2019-03-01T07:37:12.038Z,17.73
2019-03-01T07:39:43.941Z,22.98
2019-03-01T07:42:15.164Z,22.82
2019-03-01T07:44:46.360Z,20.47
2019-03-01T07:47:17.600Z,17.55
2019-03-01T07:49:48.863Z,20.20
2019-03-01T07:52:20.471Z,15.83
2019-03-01T07:54:52.935Z,17.95
2019-03-01T07:57:25.646Z,17.87
2019-03-01T07:59:57.233Z,20.67
2019-03-01T08:02:28.396Z,19.92
2019-03-01T08:05:00.013Z,17.50
2019-03-01T08:07:32.544Z,32.17
2019-03-01T08:10:03.921Z,14.53
2019-03-01T08:12:38.608Z,21.42
2019-03-01T08:15:10.112Z,21.73
2019-03-01T08:17:42.581Z,18.45
2019-03-01T08:20:15.313Z,19.17
2019-03-01T08:22:49.060Z,16.12
2019-03-01T08:25:23.717Z,17.98
2019-03-01T08:27:53.045Z,17.42
2019-03-01T08:30:24.274Z,17.87
2019-03-01T08:32:55.488Z,16.30
2019-03-01T08:35:28.271Z,18.48
2019-03-01T08:37:59.731Z,17.25
2019-03-01T08:40:30.891Z,19.23
2019-03-01T08:43:02.192Z,16.90
2019-03-01T08:45:33.684Z,17.43
2019-03-01T08:48:05.030Z,16.32
2019-03-01T08:50:37.512Z,21.40
2019-03-01T08:53:11.451Z,19.55
2019-03-01T08:55:42.562Z,20.00
2019-03-01T08:58:13.850Z,19.23
2019-03-01T09:00:45.739Z,17.50
2019-03-01T09:03:23.138Z,13.78
2019-03-01T09:05:55.740Z,14.93
2019-03-01T09:08:28.011Z,12.93
2019-03-01T09:10:59.803Z,14.00
2019-03-01T09:13:31.588Z,14.23
2019-03-01T09:16:03.387Z,13.78
2019-03-01T09:18:34.882Z,13.08
2019-03-01T09:21:12.338Z,14.30
2019-03-01T09:23:39.904Z,13.28
2019-03-01T09:26:11.371Z,12.47
2019-03-01T09:28:42.640Z,12.40
2019-03-01T09:33:45.080Z,10.63
2019-03-01T09:36:23.412Z,11.48
2019-03-01T09:38:54.791Z,11.80
2019-03-01T09:41:26.190Z,10.93
2019-03-01T09:43:59.618Z,12.55
2019-03-01T09:46:30.449Z,11.03
2019-03-01T09:49:01.741Z,12.23
2019-03-01T09:51:33.150Z,11.63
2019-03-01T09:54:06.436Z,10.48
2019-03-01T09:56:37.831Z,12.37
2019-03-01T09:59:09.198Z,11.43
2019-03-01T10:01:40.630Z,11.67
2019-03-01T10:04:11.944Z,12.95
2019-03-01T10:06:43.251Z,12.37
2019-03-01T10:09:14.317Z,12.47
2019-03-01T10:11:45.650Z,11.53
2019-03-01T10:14:16.869Z,12.50
2019-03-01T10:16:48.265Z,13.85
2019-03-01T10:19:19.909Z,14.70
2019-03-01T10:21:51.178Z,13.10
2019-03-01T10:24:22.448Z,12.18
2019-03-01T10:26:54.191Z,17.55
2019-03-01T10:29:25.461Z,13.13
2019-03-01T10:31:56.608Z,10.67
2019-03-01T10:34:27.781Z,11.55
2019-03-01T10:36:58.968Z,11.00
2019-03-01T10:39:30.153Z,12.33
2019-03-01T10:42:01.391Z,12.30
2019-03-01T10:47:03.478Z,12.68
2019-03-01T10:49:34.572Z,9.65
2019-03-01T10:52:05.778Z,11.95
2019-03-01T10:54:37.042Z,10.70
2019-03-01T10:57:08.331Z,13.45
2019-03-01T10:59:39.648Z,9.67
2019-03-01T11:02:11.260Z,11.43
2019-03-01T11:04:42.600Z,11.15
2019-03-01T11:07:13.789Z,10.28
2019-03-01T11:09:45.119Z,10.43
2019-03-01T11:12:16.428Z,10.93
2019-03-01T11:14:47.600Z,10.53
2019-03-01T11:17:18.860Z,12.20
2019-03-01T11:19:50.030Z,10.68
2019-03-01T11:22:21.273Z,11.53
2019-03-01T11:24:52.548Z,10.93
2019-03-01T11:27:24.118Z,12.58
2019-03-01T11:29:55.378Z,11.15
2019-03-01T11:32:26.618Z,14.15
2019-03-01T11:34:57.844Z,12.37
2019-03-01T11:37:29.191Z,11.55
2019-03-01T11:40:00.378Z,14.30
2019-03-01T11:42:31.638Z,11.53
2019-03-01T11:45:02.832Z,11.75
2019-03-01T11:47:34.289Z,10.05
2019-03-01T11:50:06.609Z,10.23
2019-03-01T11:52:38.048Z,11.03
2019-03-01T11:55:09.261Z,10.48
2019-03-01T11:57:40.519Z,12.20
2019-03-01T12:00:15.011Z,11.57
2019-03-01T12:02:46.723Z,12.28
2019-03-01T12:05:17.938Z,10.90
2019-03-01T12:07:49.130Z,9.80
2019-03-01T12:10:21.899Z,11.57
2019-03-01T12:12:53.214Z,10.72
2019-03-01T12:15:24.630Z,11.63
2019-03-01T12:17:55.873Z,12.97
2019-03-01T12:20:27.569Z,12.57
2019-03-01T12:22:58.951Z,15.63
2019-03-01T12:25:30.440Z,14.25
2019-03-01T12:28:01.678Z,12.18
2019-03-01T12:30:33.520Z,12.63
2019-03-01T12:33:04.823Z,13.10
2019-03-01T12:35:36.260Z,14.97
2019-03-01T12:38:07.542Z,12.70
2019-03-01T12:40:38.890Z,15.10
2019-03-01T12:43:10.039Z,12.57
2019-03-01T12:45:41.490Z,15.30
2019-03-01T12:48:12.778Z,13.85
2019-03-01T12:50:44.139Z,13.57
2019-03-01T12:53:15.441Z,12.65
2019-03-01T12:55:46.750Z,14.53
2019-03-01T12:58:19.652Z,13.00
2019-03-01T13:00:51.160Z,15.48
2019-03-01T13:03:22.637Z,11.90
2019-03-01T13:05:53.919Z,12.25
2019-03-01T13:08:25.248Z,14.40
2019-03-01T13:10:56.631Z,13.13
2019-03-01T13:13:27.962Z,13.33
2019-03-01T13:15:59.281Z,13.03
2019-03-01T13:18:30.631Z,12.37
2019-03-01T13:21:03.488Z,12.68
2019-03-01T13:23:37.523Z,13.58
2019-03-01T13:26:08.138Z,11.93
2019-03-01T13:28:39.481Z,13.78
2019-03-01T13:31:11.480Z,13.50
2019-03-01T13:33:43.520Z,14.18
2019-03-01T13:36:15.109Z,14.10
2019-03-01T13:38:46.400Z,14.80
2019-03-01T13:41:19.290Z,12.55
2019-03-01T13:43:50.370Z,14.13
2019-03-01T13:46:21.711Z,12.65
2019-03-01T13:48:54.138Z,14.20
2019-03-01T13:51:25.979Z,13.90
2019-03-01T13:53:57.510Z,14.55
2019-03-01T13:56:28.941Z,14.43
2019-03-01T13:59:02.899Z,16.00
2019-03-01T14:01:34.358Z,13.32
2019-03-01T14:04:05.603Z,14.77
2019-03-01T14:06:37.038Z,14.37
2019-03-01T14:09:14.601Z,11.57
2019-03-01T14:11:45.867Z,15.18
2019-03-01T14:14:17.372Z,14.37
2019-03-01T14:16:48.831Z,13.75
2019-03-01T14:19:20.252Z,17.05
2019-03-01T14:21:51.521Z,12.10
2019-03-01T14:26:55.831Z,11.23
2019-03-01T14:29:27.201Z,11.65
2019-03-01T14:31:58.603Z,13.10
2019-03-01T14:34:29.892Z,11.48
2019-03-01T14:37:01.121Z,11.70
2019-03-01T14:39:32.573Z,10.47
2019-03-01T14:42:07.071Z,9.90
2019-03-01T14:44:38.178Z,10.50
2019-03-01T14:47:09.478Z,10.30
2019-03-01T14:52:11.950Z,12.25
2019-03-01T14:54:45.120Z,9.53
2019-03-01T14:57:21.752Z,12.20
2019-03-01T15:00:31.933Z,10.18
2019-03-01T15:03:38.022Z,11.05
2019-03-01T15:06:10.580Z,11.63
2019-03-01T15:08:44.153Z,10.40
2019-03-01T15:11:18.220Z,11.03
2019-03-01T15:13:50.709Z,11.75
2019-03-01T15:16:21.996Z,10.95
2019-03-01T15:18:53.524Z,11.30
2019-03-01T15:21:25.130Z,11.85
2019-03-01T15:24:00.131Z,12.30
2019-03-01T15:26:29.432Z,9.98
2019-03-01T15:29:00.758Z,9.53
2019-03-01T15:31:32.180Z,9.85
2019-03-01T15:34:03.348Z,9.47
2019-03-01T15:36:34.591Z,9.55
2019-03-01T15:39:08.472Z,9.95
2019-03-01T15:41:42.143Z,8.73
2019-03-01T15:44:15.291Z,10.28
2019-03-01T15:46:49.754Z,9.23
2019-03-01T15:49:23.623Z,10.18
2019-03-01T15:51:53.270Z,8.63
2019-03-01T15:56:55.789Z,7.92
2019-03-01T15:59:27.243Z,8.83
2019-03-01T16:01:58.720Z,7.77
2019-03-01T16:04:30.477Z,9.18
2019-03-01T16:07:03.380Z,7.62
2019-03-01T16:09:34.620Z,8.25
2019-03-01T16:12:05.808Z,9.18
2019-03-01T16:14:37.130Z,7.95
2019-03-01T16:17:09.541Z,9.48
2019-03-01T16:19:41.822Z,9.40
2019-03-01T16:24:45.006Z,10.65
2019-03-01T16:27:16.953Z,11.75
2019-03-01T16:29:48.258Z,11.08
2019-03-01T16:32:19.749Z,12.17
2019-03-01T16:34:52.654Z,11.85
2019-03-01T16:37:26.061Z,12.20
2019-03-01T16:40:00.110Z,13.05
2019-03-01T16:42:38.227Z,14.65
2019-03-01T16:45:04.130Z,15.48
2019-03-01T16:47:38.231Z,14.70
2019-03-01T16:50:10.788Z,18.37
2019-03-01T16:52:42.581Z,15.18
2019-03-01T16:55:15.751Z,15.15
2019-03-01T16:57:48.617Z,14.95
2019-03-01T17:00:20.411Z,15.18
2019-03-01T17:02:51.920Z,15.63
2019-03-01T17:05:26.504Z,16.23
2019-03-01T17:07:59.673Z,16.95
2019-03-01T17:10:31.239Z,15.20
2019-03-01T17:13:03.181Z,13.60
2019-03-01T17:15:34.670Z,16.07
2019-03-01T17:18:11.105Z,15.15
2019-03-01T17:20:39.871Z,14.80
2019-03-01T17:23:15.540Z,17.60
2019-03-01T17:25:47.656Z,16.52
2019-03-01T17:30:51.778Z,18.70
2019-03-01T17:33:23.181Z,16.75
2019-03-01T17:35:54.471Z,19.87
2019-03-01T17:38:25.938Z,16.62
2019-03-01T17:40:57.710Z,19.60
2019-03-01T17:43:29.633Z,18.75
2019-03-01T17:46:01.860Z,17.95
2019-03-01T17:48:33.138Z,18.10
2019-03-01T17:51:04.430Z,18.17
2019-03-01T17:53:35.548Z,17.85
2019-03-01T17:56:06.828Z,18.47
2019-03-01T17:58:38.121Z,15.77
2019-03-01T18:01:09.428Z,14.90
2019-03-01T18:03:40.732Z,16.50
2019-03-01T18:06:13.003Z,12.83
2019-03-01T18:08:44.930Z,14.28
2019-03-01T18:11:16.198Z,13.72
2019-03-01T18:13:47.450Z,15.47
2019-03-01T18:16:22.121Z,14.73
2019-03-01T18:18:52.968Z,16.77
2019-03-01T18:21:24.301Z,15.80
2019-03-01T18:23:55.588Z,13.08
2019-03-01T18:26:26.971Z,11.35
2019-03-01T18:29:00.947Z,8.77
2019-03-01T18:31:34.473Z,9.18
2019-03-01T18:34:04.301Z,9.05
2019-03-01T18:36:35.734Z,12.67
2019-03-01T18:39:13.055Z,8.83
2019-03-01T18:41:44.451Z,11.68
2019-03-01T18:44:15.610Z,11.53
2019-03-01T18:46:47.710Z,11.03
2019-03-01T18:49:19.774Z,8.45
2019-03-01T18:51:52.091Z,12.20
2019-03-01T18:54:23.348Z,10.87
2019-03-01T18:56:54.542Z,12.65
2019-03-01T18:59:26.543Z,11.97
2019-03-01T19:01:57.899Z,11.88
2019-03-01T19:04:30.049Z,12.30
2019-03-01T19:07:01.338Z,16.27
2019-03-01T19:09:32.699Z,9.77
2019-03-01T19:12:04.150Z,11.20
2019-03-01T19:14:39.027Z,7.70
2019-03-01T19:17:08.520Z,13.60
2019-03-01T19:19:39.611Z,8.78
2019-03-01T19:22:11.148Z,10.25
2019-03-01T19:24:43.304Z,13.38
2019-03-01T19:27:15.797Z,8.68
2019-03-01T19:29:47.148Z,7.50
2019-03-01T19:32:18.541Z,8.93
2019-03-01T19:34:52.748Z,9.88
2019-03-01T19:37:22.888Z,10.48
2019-03-01T19:39:54.504Z,14.30
2019-03-01T19:42:25.833Z,9.78
2019-03-01T19:44:57.019Z,11.80
2019-03-01T19:47:29.541Z,9.65
2019-03-01T19:50:00.838Z,17.15
2019-03-01T19:52:32.330Z,17.55
2019-03-01T19:55:03.569Z,8.83
2019-03-01T19:57:36.370Z,8.55
2019-03-01T20:00:12.758Z,8.98
2019-03-01T20:02:45.380Z,11.45
2019-03-01T20:05:18.328Z,11.35
2019-03-01T20:07:51.736Z,9.85
2019-03-01T20:10:24.790Z,11.93
2019-03-01T20:12:56.221Z,14.25
2019-03-01T20:15:28.177Z,12.10
2019-03-01T20:17:59.723Z,12.00
2019-03-01T20:20:33.505Z,10.15
2019-03-01T20:23:04.080Z,9.53
2019-03-01T20:25:35.448Z,11.67
2019-03-01T20:28:06.691Z,9.70
2019-03-01T20:30:38.160Z,9.60
2019-03-01T20:33:09.471Z,10.95
2019-03-01T20:35:40.853Z,10.60
2019-03-01T20:38:12.293Z,9.80
2019-03-01T20:40:44.584Z,9.70
2019-03-01T20:43:16.348Z,8.25
2019-03-01T20:45:47.681Z,10.78
2019-03-01T20:48:19.149Z,10.28
2019-03-01T20:50:51.056Z,12.77
2019-03-01T20:53:23.617Z,10.13
2019-03-01T20:55:55.018Z,12.88
2019-03-01T20:58:26.308Z,8.40
2019-03-01T21:00:58.871Z,14.57
2019-03-01T21:03:30.728Z,9.80
2019-03-01T21:06:04.668Z,7.83
2019-03-01T21:08:35.424Z,8.70
2019-03-01T21:13:37.498Z,7.50
2019-03-01T21:16:11.773Z,9.28
2019-03-01T21:18:43.632Z,8.15
2019-03-01T21:21:15.189Z,11.00
2019-03-01T21:23:51.026Z,7.80
2019-03-01T21:26:21.527Z,10.20
2019-03-01T21:28:52.770Z,11.68
2019-03-01T21:31:24.139Z,10.13
2019-03-01T21:33:55.464Z,8.45
2019-03-01T21:36:27.125Z,11.55
2019-03-01T21:38:58.411Z,10.58
2019-03-01T21:41:29.670Z,9.67
2019-03-01T21:44:01.308Z,9.28
2019-03-01T21:46:34.152Z,6.83
2019-03-01T21:49:06.189Z,10.00
2019-03-01T21:51:37.450Z,8.73
2019-03-01T21:54:08.710Z,8.27
2019-03-01T21:56:55.471Z,9.10
2019-03-01T21:59:13.690Z,8.98
2019-03-01T22:01:46.200Z,10.30
2019-03-01T22:04:17.572Z,15.83
2019-03-01T22:06:48.958Z,11.73
2019-03-01T22:09:20.714Z,11.95
2019-03-01T22:11:53.455Z,12.10
2019-03-01T22:14:24.820Z,11.15
2019-03-01T22:16:56.030Z,17.47
2019-03-01T22:19:30.482Z,10.25
2019-03-01T22:22:00.358Z,28.57
2019-03-01T22:24:31.778Z,16.80
2019-03-01T22:27:02.948Z,19.82
2019-03-01T22:29:34.280Z,13.65
2019-03-01T22:32:07.298Z,12.63
2019-03-01T22:34:38.809Z,10.35
2019-03-01T22:37:09.850Z,12.85
2019-03-01T22:39:42.810Z,8.53
2019-03-01T22:42:15.111Z,9.60
2019-03-01T22:44:46.629Z,15.28
2019-03-01T22:47:18.000Z,9.85
2019-03-01T22:49:49.558Z,10.68
2019-03-01T22:52:20.881Z,8.43
2019-03-01T22:54:52.531Z,8.77
2019-03-01T22:57:25.961Z,9.53
2019-03-01T22:59:57.050Z,8.00
2019-03-01T23:02:30.082Z,8.90
2019-03-01T23:05:03.864Z,8.68
2019-03-01T23:07:34.410Z,7.97
2019-03-01T23:10:05.910Z,8.87
2019-03-01T23:12:40.545Z,10.30
2019-03-01T23:15:12.148Z,8.08
2019-03-01T23:17:43.409Z,9.00
2019-03-01T23:20:14.728Z,9.90
2019-03-01T23:22:46.994Z,10.50
2019-03-01T23:25:18.348Z,9.38
2019-03-01T23:27:50.399Z,9.88
2019-03-01T23:30:21.729Z,11.12
2019-03-01T23:32:55.717Z,11.75
2019-03-01T23:35:26.130Z,13.75
2019-03-01T23:37:57.410Z,13.40
2019-03-01T23:40:28.570Z,10.97
2019-03-01T23:42:59.710Z,10.97
2019-03-01T23:45:30.860Z,10.10
2019-03-01T23:48:02.151Z,11.80
2019-03-01T23:50:34.946Z,10.60
2019-03-01T23:53:06.350Z,19.70
2019-03-01T23:55:37.719Z,11.45
2019-03-01T23:58:08.950Z,14.53
